Compagnie Fsx-France! Un nouveau look pour votre VA, par: Julien & Co




 METAR ET TAF INFORMATION
METAR FOR LFPO
ADDS - METARS form results

(1217 UTC 26 May 2020)
Data provider http://aviationweather.gov/metar/data/
 
METAR text: LFPO 261200Z AUTO 07013KT CAVOK 24/09 Q1034 NOSIG
Conditions at: LFPO (PARIS/ORLY , FR) observed 1200 UTC 26 May 2020
Temperature: 24.0°C (75°F)
Dewpoint: 9.0°C (48°F) [RH = 38%]
Pressure (altimeter): 30.53 inches Hg (1034.0 mb)
Winds: from the ENE (70 degrees) at 15 MPH (13 knots; 6.7 m/s)
Visibility: 6 or more miles (10+ km)
Ceiling: ceiling and visibility are OK
Clouds: unknown
Weather: no significant weather observed at this time

METAR text: LFPO 261130Z AUTO 06012KT CAVOK 23/09 Q1034 NOSIG
Conditions at: LFPO (PARIS/ORLY , FR) observed 1130 UTC 26 May 2020
Temperature: 23.0°C (73°F)
Dewpoint: 9.0°C (48°F) [RH = 41%]
Pressure (altimeter): 30.53 inches Hg (1034.0 mb)
Winds: from the ENE (60 degrees) at 14 MPH (12 knots; 6.2 m/s)
Visibility: 6 or more miles (10+ km)
Ceiling: ceiling and visibility are OK
Clouds: unknown
Weather: no significant weather observed at this time

Forecast for: LFPO (PARIS/ORLY , FR)
Text: TAF LFPO 261100Z 2612/2718 04010KT CAVOK
Forecast period: 1200 UTC 26 May 2020 to 1800 UTC 27 May 2020
Forecast type: FROM: standard forecast or significant change
Winds: from the NE (40 degrees) at 12 MPH (10 knots; 5.1 m/s)
Visibility: 6 or more miles 10+ km)
Ceiling: unknown
Clouds: missing
Weather: NSW  (no significant weather)

 AÉROPORT DE AÉROPORT

 INFORMATIONS DE PISTE
Piste 02 Longueur de la piste 2400 m = 7874 ft Largeur de la piste 60 m = 197 ft
Élévation de la piste 287 ft Seuil de la piste déplacés 0 ft Runway heading 18
Piste 20 Longueur de la piste 2400 m = 7874 ft Largeur de la piste 60 m = 197 ft
Élévation de la piste 287 ft Seuil de la piste déplacés 0 ft Runway heading 198
Piste 06 Longueur de la piste 3650 m = 11975 ft Largeur de la piste 45 m = 148 ft
Élévation de la piste 283 ft Seuil de la piste déplacés 984 ft Runway heading 62
Piste 24 Longueur de la piste 3650 m = 11975 ft Largeur de la piste 45 m = 148 ft
Élévation de la piste 284 ft Seuil de la piste déplacés 0 ft Runway heading 242
Piste 08 Longueur de la piste 3320 m = 10892 ft Largeur de la piste 45 m = 148 ft
Élévation de la piste 277 ft Seuil de la piste déplacés 0 ft Runway heading 74
Piste 26 Longueur de la piste 3320 m = 10892 ft Largeur de la piste 45 m = 148 ft
Élévation de la piste 287 ft Seuil de la piste déplacés 1427 ft Runway heading 254

 AÉROPORT FRÉQUENCES
Type APP Nom APP Féquence 123.875 MHZ
Type ATIS Nom ATIS Féquence 131.35 MHZ
Type DEP Nom DEP Féquence 127.75 MHZ
Type GND Nom GND Féquence 121.7 MHZ
Type PFLT Nom PREFLIGHT Féquence 121.05 MHZ
Type TWR Nom TWR Féquence 118.7 MHZ

 AIDES A LA NAVIGATION
Type VOR-DME Nom Orly Féquence 111200 KHZ